Pagrindinis puslapis
METAR-TAF:

METAR-TAF

Oro uostai :

Gambell, Aliaska, Jungtinės Amerikos Valstijos

platuma: 63-46N, ilguma: 171-44W, Aukštis: 8 m

Dabartinis oras

Ataskaita buvo paskelbta 32 minutes, ne 09:56 UTC
Vėjas 22 kt iš Šiaurės/Šiaurės Vakarų su gūsio iki 31 kt
Temperatūra -3°C
Drėgmė 74%
Slėgis 1000 hPa
Matomumas: 11.3 km
Mažai debesys ne aukštis 1700 ft
Su prošvaistėmis ne aukštis 2600 ft
Apsiniaukę ne aukštis 3700 ft
sniegas

METAR: PAGM 290956Z AUTO 34022G31KT 7SM -SN FEW017 BKN026 OVC037 M03/M07 A2953 RMK AO2 PK WND 01032/0935 UPE06SNB06 SLP006 P0000 T10331072 FZRANO

Laikas: 01:28 (10:28 UTC)


TAF: trūkstamas

Orai ataskaitas ir orų prognozės (METAR, TAF).

turimą stotys yra geltonos ir raudonos taškus žemėlapyje.

Perkelti pele per norėdami pamatyti stoties vardą.

Tada spustelėkite, norėdami matyti oro stebėjimo ir prognozės.

Norėdami pakeisti žemėlapį: spustelėkite ant žalios mygtukų su juodo kryžiaus žemyn,; žalią mygtuką su brūkšneliu, jei norite nutolinti; arba žalių rodyklių gretimoms žemėlapius.


METAR-TAF: